sensor_id;sensor_type;location;lat;lon;timestamp;temperature;humidity
14016;DHT22;7083;48.854;9.158;2023-05-08T00:00:56;14.20;99.90
14016;DHT22;7083;48.854;9.158;2023-05-08T00:03:23;14.20;99.90
14016;DHT22;7083;48.854;9.158;2023-05-08T00:05:50;14.20;99.90
14016;DHT22;7083;48.854;9.158;2023-05-08T00:08:21;14.20;99.90
14016;DHT22;7083;48.854;9.158;2023-05-08T00:10:47;14.20;99.90
14016;DHT22;7083;48.854;9.158;2023-05-08T00:13:15;14.20;99.90
14016;DHT22;7083;48.854;9.158;2023-05-08T00:15:41;14.20;99.90
14016;DHT22;7083;48.854;9.158;2023-05-08T00:18:08;14.10;99.90
14016;DHT22;7083;48.854;9.158;2023-05-08T00:20:35;14.10;99.90
14016;DHT22;7083;48.854;9.158;2023-05-08T00:23:02;14.10;99.90
14016;DHT22;7083;48.854;9.158;2023-05-08T00:25:30;14.10;99.90
14016;DHT22;7083;48.854;9.158;2023-05-08T00:27:57;14.00;99.90
14016;DHT22;7083;48.854;9.158;2023-05-08T00:30:23;14.10;99.90
14016;DHT22;7083;48.854;9.158;2023-05-08T00:32:50;14.10;99.90
14016;DHT22;7083;48.854;9.158;2023-05-08T00:35:17;14.10;99.90
14016;DHT22;7083;48.854;9.158;2023-05-08T00:37:44;14.10;99.90
14016;DHT22;7083;48.854;9.158;2023-05-08T00:40:11;14.10;99.90
14016;DHT22;7083;48.854;9.158;2023-05-08T00:42:39;14.00;99.90
14016;DHT22;7083;48.854;9.158;2023-05-08T00:45:06;14.00;99.90
14016;DHT22;7083;48.854;9.158;2023-05-08T00:47:33;14.00;99.90
14016;DHT22;7083;48.854;9.158;2023-05-08T00:50:01;14.00;99.90
14016;DHT22;7083;48.854;9.158;2023-05-08T00:52:29;14.00;99.90
14016;DHT22;7083;48.854;9.158;2023-05-08T00:54:58;14.00;99.90
14016;DHT22;7083;48.854;9.158;2023-05-08T00:57:24;14.00;99.90
14016;DHT22;7083;48.854;9.158;2023-05-08T00:59:54;14.00;99.90
14016;DHT22;7083;48.854;9.158;2023-05-08T01:02:20;14.00;99.90
14016;DHT22;7083;48.854;9.158;2023-05-08T01:04:48;14.00;99.90
14016;DHT22;7083;48.854;9.158;2023-05-08T01:07:16;13.90;99.90
14016;DHT22;7083;48.854;9.158;2023-05-08T01:09:43;13.90;99.90
14016;DHT22;7083;48.854;9.158;2023-05-08T01:12:16;13.90;99.90
14016;DHT22;7083;48.854;9.158;2023-05-08T01:14:55;13.90;99.90
14016;DHT22;7083;48.854;9.158;2023-05-08T01:17:27;13.90;99.90
14016;DHT22;7083;48.854;9.158;2023-05-08T01:20:08;14.00;99.90
14016;DHT22;7083;48.854;9.158;2023-05-08T01:22:51;13.90;99.90
14016;DHT22;7083;48.854;9.158;2023-05-08T01:25:45;14.00;99.90
14016;DHT22;7083;48.854;9.158;2023-05-08T01:28:46;14.00;99.90
14016;DHT22;7083;48.854;9.158;2023-05-08T01:31:23;14.00;99.90
14016;DHT22;7083;48.854;9.158;2023-05-08T01:33:55;14.00;99.90
14016;DHT22;7083;48.854;9.158;2023-05-08T01:36:29;14.00;99.90
14016;DHT22;7083;48.854;9.158;2023-05-08T01:39:04;13.90;99.90
14016;DHT22;7083;48.854;9.158;2023-05-08T01:41:36;13.90;99.90
14016;DHT22;7083;48.854;9.158;2023-05-08T01:44:09;13.90;99.90
14016;DHT22;7083;48.854;9.158;2023-05-08T01:46:38;13.90;99.90
14016;DHT22;7083;48.854;9.158;2023-05-08T01:49:09;13.90;99.90
14016;DHT22;7083;48.854;9.158;2023-05-08T01:51:40;13.90;99.90
14016;DHT22;7083;48.854;9.158;2023-05-08T01:54:15;13.90;99.90
14016;DHT22;7083;48.854;9.158;2023-05-08T01:56:43;13.90;99.90
14016;DHT22;7083;48.854;9.158;2023-05-08T01:59:14;13.90;99.90
14016;DHT22;7083;48.854;9.158;2023-05-08T02:01:43;13.90;99.90
14016;DHT22;7083;48.854;9.158;2023-05-08T02:04:13;13.90;99.90
14016;DHT22;7083;48.854;9.158;2023-05-08T02:06:40;13.90;99.90
14016;DHT22;7083;48.854;9.158;2023-05-08T02:09:08;13.90;99.90
14016;DHT22;7083;48.854;9.158;2023-05-08T02:11:37;13.80;99.90
14016;DHT22;7083;48.854;9.158;2023-05-08T02:14:05;13.80;99.90
14016;DHT22;7083;48.854;9.158;2023-05-08T02:16:33;13.80;99.90
14016;DHT22;7083;48.854;9.158;2023-05-08T02:19:01;13.80;99.90
14016;DHT22;7083;48.854;9.158;2023-05-08T02:21:31;13.80;99.90
14016;DHT22;7083;48.854;9.158;2023-05-08T02:23:59;13.80;99.90
14016;DHT22;7083;48.854;9.158;2023-05-08T02:26:27;13.80;99.90
14016;DHT22;7083;48.854;9.158;2023-05-08T02:28:54;13.80;99.90
14016;DHT22;7083;48.854;9.158;2023-05-08T02:31:23;13.80;99.90
14016;DHT22;7083;48.854;9.158;2023-05-08T02:33:50;13.80;99.90
14016;DHT22;7083;48.854;9.158;2023-05-08T02:36:18;13.70;99.90
14016;DHT22;7083;48.854;9.158;2023-05-08T02:38:51;13.80;99.90
14016;DHT22;7083;48.854;9.158;2023-05-08T02:41:20;13.80;99.90
14016;DHT22;7083;48.854;9.158;2023-05-08T02:43:48;13.80;99.90
14016;DHT22;7083;48.854;9.158;2023-05-08T02:46:18;13.80;99.90
14016;DHT22;7083;48.854;9.158;2023-05-08T02:48:54;13.80;99.90
14016;DHT22;7083;48.854;9.158;2023-05-08T02:51:24;13.60;99.90
14016;DHT22;7083;48.854;9.158;2023-05-08T02:53:58;13.70;99.90
14016;DHT22;7083;48.854;9.158;2023-05-08T02:56:31;13.70;99.90
14016;DHT22;7083;48.854;9.158;2023-05-08T02:59:12;13.80;99.90
14016;DHT22;7083;48.854;9.158;2023-05-08T03:01:44;13.80;99.90
14016;DHT22;7083;48.854;9.158;2023-05-08T03:04:20;13.80;99.90
14016;DHT22;7083;48.854;9.158;2023-05-08T03:06:49;13.80;99.90
14016;DHT22;7083;48.854;9.158;2023-05-08T03:09:20;13.70;99.90
14016;DHT22;7083;48.854;9.158;2023-05-08T03:11:56;13.80;99.90
14016;DHT22;7083;48.854;9.158;2023-05-08T03:14:26;13.70;99.90
14016;DHT22;7083;48.854;9.158;2023-05-08T03:16:55;13.80;99.90
14016;DHT22;7083;48.854;9.158;2023-05-08T03:19:26;13.70;99.90
14016;DHT22;7083;48.854;9.158;2023-05-08T03:21:54;13.70;99.90
14016;DHT22;7083;48.854;9.158;2023-05-08T03:24:25;13.80;99.90
14016;DHT22;7083;48.854;9.158;2023-05-08T03:26:54;13.80;99.90
14016;DHT22;7083;48.854;9.158;2023-05-08T03:29:22;13.80;99.90
14016;DHT22;7083;48.854;9.158;2023-05-08T03:31:50;13.80;99.90
14016;DHT22;7083;48.854;9.158;2023-05-08T03:34:18;13.80;99.90
14016;DHT22;7083;48.854;9.158;2023-05-08T03:36:46;13.80;99.90
14016;DHT22;7083;48.854;9.158;2023-05-08T03:39:13;13.80;99.90
14016;DHT22;7083;48.854;9.158;2023-05-08T03:41:41;13.80;99.90
14016;DHT22;7083;48.854;9.158;2023-05-08T03:44:09;13.80;99.90
14016;DHT22;7083;48.854;9.158;2023-05-08T03:46:37;13.80;99.90
14016;DHT22;7083;48.854;9.158;2023-05-08T03:49:05;13.80;99.90
14016;DHT22;7083;48.854;9.158;2023-05-08T03:51:35;13.80;99.90
14016;DHT22;7083;48.854;9.158;2023-05-08T03:54:02;13.80;99.90
14016;DHT22;7083;48.854;9.158;2023-05-08T03:56:29;13.80;99.90
14016;DHT22;7083;48.854;9.158;2023-05-08T03:59:03;13.70;99.90
14016;DHT22;7083;48.854;9.158;2023-05-08T04:01:37;13.80;99.90
14016;DHT22;7083;48.854;9.158;2023-05-08T04:04:08;13.70;99.90
14016;DHT22;7083;48.854;9.158;2023-05-08T04:06:42;13.70;99.90
14016;DHT22;7083;48.854;9.158;2023-05-08T04:09:22;13.70;99.90
14016;DHT22;7083;48.854;9.158;2023-05-08T04:12:01;13.70;99.90
14016;DHT22;7083;48.854;9.158;2023-05-08T04:14:33;13.70;99.90
14016;DHT22;7083;48.854;9.158;2023-05-08T04:17:06;13.70;99.90
14016;DHT22;7083;48.854;9.158;2023-05-08T04:19:38;13.70;99.90
14016;DHT22;7083;48.854;9.158;2023-05-08T04:22:09;13.70;99.90
14016;DHT22;7083;48.854;9.158;2023-05-08T04:24:41;13.60;99.90
14016;DHT22;7083;48.854;9.158;2023-05-08T04:27:09;13.60;99.90
14016;DHT22;7083;48.854;9.158;2023-05-08T04:29:37;13.70;99.90
14016;DHT22;7083;48.854;9.158;2023-05-08T04:32:04;13.70;99.90
14016;DHT22;7083;48.854;9.158;2023-05-08T04:34:31;13.70;99.90
14016;DHT22;7083;48.854;9.158;2023-05-08T04:36:58;13.70;99.90
14016;DHT22;7083;48.854;9.158;2023-05-08T04:39:25;13.70;99.90
14016;DHT22;7083;48.854;9.158;2023-05-08T04:41:52;13.80;99.90
14016;DHT22;7083;48.854;9.158;2023-05-08T04:44:20;13.80;99.90
14016;DHT22;7083;48.854;9.158;2023-05-08T04:46:48;13.90;99.90
14016;DHT22;7083;48.854;9.158;2023-05-08T04:49:15;13.90;99.90
14016;DHT22;7083;48.854;9.158;2023-05-08T04:51:42;13.90;99.90
14016;DHT22;7083;48.854;9.158;2023-05-08T04:54:08;13.90;99.90
14016;DHT22;7083;48.854;9.158;2023-05-08T04:56:35;13.90;99.90
14016;DHT22;7083;48.854;9.158;2023-05-08T04:59:01;14.00;99.90
14016;DHT22;7083;48.854;9.158;2023-05-08T05:01:28;14.00;99.90
14016;DHT22;7083;48.854;9.158;2023-05-08T05:03:56;14.00;99.90
14016;DHT22;7083;48.854;9.158;2023-05-08T05:06:23;14.10;99.90
14016;DHT22;7083;48.854;9.158;2023-05-08T05:08:49;14.10;99.90
14016;DHT22;7083;48.854;9.158;2023-05-08T05:11:16;14.10;99.90
14016;DHT22;7083;48.854;9.158;2023-05-08T05:13:43;14.20;99.90
14016;DHT22;7083;48.854;9.158;2023-05-08T05:16:09;14.20;99.90
14016;DHT22;7083;48.854;9.158;2023-05-08T05:18:36;14.30;99.90
14016;DHT22;7083;48.854;9.158;2023-05-08T05:21:04;14.20;99.90
14016;DHT22;7083;48.854;9.158;2023-05-08T05:23:31;14.30;99.90
14016;DHT22;7083;48.854;9.158;2023-05-08T05:25:58;14.30;99.90
14016;DHT22;7083;48.854;9.158;2023-05-08T05:28:24;14.30;99.90
14016;DHT22;7083;48.854;9.158;2023-05-08T05:30:51;14.30;99.90
14016;DHT22;7083;48.854;9.158;2023-05-08T05:33:18;14.40;99.90
14016;DHT22;7083;48.854;9.158;2023-05-08T05:35:44;14.40;99.90
14016;DHT22;7083;48.854;9.158;2023-05-08T05:38:12;14.40;99.90
14016;DHT22;7083;48.854;9.158;2023-05-08T05:40:39;14.40;99.90
14016;DHT22;7083;48.854;9.158;2023-05-08T05:43:06;14.40;99.90
14016;DHT22;7083;48.854;9.158;2023-05-08T05:45:32;14.40;99.90
14016;DHT22;7083;48.854;9.158;2023-05-08T05:48:00;14.40;99.90
14016;DHT22;7083;48.854;9.158;2023-05-08T05:50:27;14.50;99.90
14016;DHT22;7083;48.854;9.158;2023-05-08T05:52:54;14.50;99.90
14016;DHT22;7083;48.854;9.158;2023-05-08T05:55:22;14.50;99.90
14016;DHT22;7083;48.854;9.158;2023-05-08T05:57:48;14.50;99.90
14016;DHT22;7083;48.854;9.158;2023-05-08T06:00:16;14.50;99.90
14016;DHT22;7083;48.854;9.158;2023-05-08T06:02:43;14.60;99.90
14016;DHT22;7083;48.854;9.158;2023-05-08T06:05:10;14.60;99.90
14016;DHT22;7083;48.854;9.158;2023-05-08T06:07:37;14.70;99.90
14016;DHT22;7083;48.854;9.158;2023-05-08T06:10:05;14.70;99.90
14016;DHT22;7083;48.854;9.158;2023-05-08T06:12:33;14.80;99.90
14016;DHT22;7083;48.854;9.158;2023-05-08T06:15:00;14.80;99.90
14016;DHT22;7083;48.854;9.158;2023-05-08T06:17:27;14.80;99.90
14016;DHT22;7083;48.854;9.158;2023-05-08T06:19:54;14.80;99.90
14016;DHT22;7083;48.854;9.158;2023-05-08T06:22:21;14.80;99.90
14016;DHT22;7083;48.854;9.158;2023-05-08T06:24:48;14.80;99.90
14016;DHT22;7083;48.854;9.158;2023-05-08T06:27:17;14.80;99.90
14016;DHT22;7083;48.854;9.158;2023-05-08T06:29:45;14.70;99.90
14016;DHT22;7083;48.854;9.158;2023-05-08T06:32:12;14.80;99.90
14016;DHT22;7083;48.854;9.158;2023-05-08T06:34:39;14.80;99.90
14016;DHT22;7083;48.854;9.158;2023-05-08T06:37:05;14.80;99.90
14016;DHT22;7083;48.854;9.158;2023-05-08T06:39:32;14.80;99.90
14016;DHT22;7083;48.854;9.158;2023-05-08T06:41:59;14.80;99.90
14016;DHT22;7083;48.854;9.158;2023-05-08T06:44:25;14.80;99.90
14016;DHT22;7083;48.854;9.158;2023-05-08T06:46:53;14.80;99.90
14016;DHT22;7083;48.854;9.158;2023-05-08T06:49:20;14.80;99.90
14016;DHT22;7083;48.854;9.158;2023-05-08T06:51:47;14.80;99.90
14016;DHT22;7083;48.854;9.158;2023-05-08T06:54:14;14.80;99.90
14016;DHT22;7083;48.854;9.158;2023-05-08T06:56:40;14.80;99.90
14016;DHT22;7083;48.854;9.158;2023-05-08T06:59:07;14.80;99.90
14016;DHT22;7083;48.854;9.158;2023-05-08T07:01:34;14.80;99.90
14016;DHT22;7083;48.854;9.158;2023-05-08T07:04:03;14.80;99.90
14016;DHT22;7083;48.854;9.158;2023-05-08T07:06:30;14.80;99.90
14016;DHT22;7083;48.854;9.158;2023-05-08T07:08:56;14.90;99.90
14016;DHT22;7083;48.854;9.158;2023-05-08T07:11:23;14.90;99.90
14016;DHT22;7083;48.854;9.158;2023-05-08T07:13:50;14.90;99.90
14016;DHT22;7083;48.854;9.158;2023-05-08T07:16:16;14.90;99.90
14016;DHT22;7083;48.854;9.158;2023-05-08T07:18:43;14.90;99.90
14016;DHT22;7083;48.854;9.158;2023-05-08T07:21:11;14.90;99.90
14016;DHT22;7083;48.854;9.158;2023-05-08T07:23:40;14.90;99.90
14016;DHT22;7083;48.854;9.158;2023-05-08T07:26:06;15.00;99.90
14016;DHT22;7083;48.854;9.158;2023-05-08T07:28:33;15.00;99.90
14016;DHT22;7083;48.854;9.158;2023-05-08T07:31:03;15.00;99.90
14016;DHT22;7083;48.854;9.158;2023-05-08T07:33:30;15.10;99.90
14016;DHT22;7083;48.854;9.158;2023-05-08T07:35:56;15.10;99.90
14016;DHT22;7083;48.854;9.158;2023-05-08T07:38:24;15.20;99.90
14016;DHT22;7083;48.854;9.158;2023-05-08T07:40:51;15.30;99.90
14016;DHT22;7083;48.854;9.158;2023-05-08T07:43:21;15.40;99.90
14016;DHT22;7083;48.854;9.158;2023-05-08T07:45:48;15.50;99.90
14016;DHT22;7083;48.854;9.158;2023-05-08T07:48:14;15.60;99.90
14016;DHT22;7083;48.854;9.158;2023-05-08T07:50:41;15.60;99.90
14016;DHT22;7083;48.854;9.158;2023-05-08T07:53:09;15.70;99.90
14016;DHT22;7083;48.854;9.158;2023-05-08T07:55:37;15.70;99.90
14016;DHT22;7083;48.854;9.158;2023-05-08T07:58:03;15.70;99.90
14016;DHT22;7083;48.854;9.158;2023-05-08T08:00:31;15.70;99.90
14016;DHT22;7083;48.854;9.158;2023-05-08T08:02:57;15.70;99.90
14016;DHT22;7083;48.854;9.158;2023-05-08T08:05:24;15.70;99.90
14016;DHT22;7083;48.854;9.158;2023-05-08T08:07:51;15.70;99.90
14016;DHT22;7083;48.854;9.158;2023-05-08T08:10:17;15.70;99.90
14016;DHT22;7083;48.854;9.158;2023-05-08T08:12:45;15.80;99.90
14016;DHT22;7083;48.854;9.158;2023-05-08T08:15:12;15.80;99.90
14016;DHT22;7083;48.854;9.158;2023-05-08T08:17:39;15.80;99.90
14016;DHT22;7083;48.854;9.158;2023-05-08T08:20:06;15.90;99.90
14016;DHT22;7083;48.854;9.158;2023-05-08T08:22:33;15.90;99.90
14016;DHT22;7083;48.854;9.158;2023-05-08T08:25:00;15.90;99.90
14016;DHT22;7083;48.854;9.158;2023-05-08T08:27:27;16.00;99.90
14016;DHT22;7083;48.854;9.158;2023-05-08T08:29:55;16.00;99.90
14016;DHT22;7083;48.854;9.158;2023-05-08T08:32:22;15.90;99.90
14016;DHT22;7083;48.854;9.158;2023-05-08T08:34:49;15.90;99.90
14016;DHT22;7083;48.854;9.158;2023-05-08T08:37:15;15.80;99.90
14016;DHT22;7083;48.854;9.158;2023-05-08T08:39:42;15.70;99.90
14016;DHT22;7083;48.854;9.158;2023-05-08T08:42:08;15.60;99.90
14016;DHT22;7083;48.854;9.158;2023-05-08T08:44:36;15.60;99.90
14016;DHT22;7083;48.854;9.158;2023-05-08T08:47:05;15.60;99.90
14016;DHT22;7083;48.854;9.158;2023-05-08T08:49:34;15.60;99.90
14016;DHT22;7083;48.854;9.158;2023-05-08T08:52:02;15.60;99.90
14016;DHT22;7083;48.854;9.158;2023-05-08T08:54:32;15.70;99.90
14016;DHT22;7083;48.854;9.158;2023-05-08T08:57:02;15.70;99.90
14016;DHT22;7083;48.854;9.158;2023-05-08T08:59:32;15.70;99.90
14016;DHT22;7083;48.854;9.158;2023-05-08T09:02:07;15.70;99.90
14016;DHT22;7083;48.854;9.158;2023-05-08T09:04:34;15.70;99.90
14016;DHT22;7083;48.854;9.158;2023-05-08T09:07:01;15.80;99.90
14016;DHT22;7083;48.854;9.158;2023-05-08T09:09:29;15.90;99.90
14016;DHT22;7083;48.854;9.158;2023-05-08T09:11:58;15.90;99.90
14016;DHT22;7083;48.854;9.158;2023-05-08T09:14:25;16.00;99.90
14016;DHT22;7083;48.854;9.158;2023-05-08T09:16:52;16.00;99.90
14016;DHT22;7083;48.854;9.158;2023-05-08T09:19:22;16.00;99.90
14016;DHT22;7083;48.854;9.158;2023-05-08T09:21:50;16.10;99.90
14016;DHT22;7083;48.854;9.158;2023-05-08T09:24:16;16.00;99.90
14016;DHT22;7083;48.854;9.158;2023-05-08T09:26:43;16.10;99.90
14016;DHT22;7083;48.854;9.158;2023-05-08T09:29:11;16.00;99.90
14016;DHT22;7083;48.854;9.158;2023-05-08T09:31:39;16.00;99.90
14016;DHT22;7083;48.854;9.158;2023-05-08T09:34:07;16.00;99.90
14016;DHT22;7083;48.854;9.158;2023-05-08T09:36:35;16.00;99.90
14016;DHT22;7083;48.854;9.158;2023-05-08T09:39:03;16.00;99.90
14016;DHT22;7083;48.854;9.158;2023-05-08T09:41:29;16.00;99.90
14016;DHT22;7083;48.854;9.158;2023-05-08T09:44:01;16.00;99.90
14016;DHT22;7083;48.854;9.158;2023-05-08T09:46:28;16.10;99.90
14016;DHT22;7083;48.854;9.158;2023-05-08T09:48:55;16.20;99.90
14016;DHT22;7083;48.854;9.158;2023-05-08T09:51:23;16.30;99.90
14016;DHT22;7083;48.854;9.158;2023-05-08T09:53:51;16.40;99.90
14016;DHT22;7083;48.854;9.158;2023-05-08T09:56:34;16.40;99.90
14016;DHT22;7083;48.854;9.158;2023-05-08T09:59:02;16.60;99.90
14016;DHT22;7083;48.854;9.158;2023-05-08T10:01:31;16.70;99.90
14016;DHT22;7083;48.854;9.158;2023-05-08T10:03:59;16.80;99.90
14016;DHT22;7083;48.854;9.158;2023-05-08T10:06:26;17.00;99.90
14016;DHT22;7083;48.854;9.158;2023-05-08T10:09:12;17.10;99.90
14016;DHT22;7083;48.854;9.158;2023-05-08T10:11:39;17.10;99.90
14016;DHT22;7083;48.854;9.158;2023-05-08T10:14:06;17.20;99.90
14016;DHT22;7083;48.854;9.158;2023-05-08T10:16:41;17.30;99.90
14016;DHT22;7083;48.854;9.158;2023-05-08T10:19:13;17.40;99.90
14016;DHT22;7083;48.854;9.158;2023-05-08T10:21:41;17.50;99.90
14016;DHT22;7083;48.854;9.158;2023-05-08T10:24:14;17.70;99.90
14016;DHT22;7083;48.854;9.158;2023-05-08T10:26:43;18.00;99.90
14016;DHT22;7083;48.854;9.158;2023-05-08T10:29:17;18.20;99.90
14016;DHT22;7083;48.854;9.158;2023-05-08T10:31:49;18.30;99.90
14016;DHT22;7083;48.854;9.158;2023-05-08T10:34:21;18.50;99.90
14016;DHT22;7083;48.854;9.158;2023-05-08T10:36:49;18.70;99.90
14016;DHT22;7083;48.854;9.158;2023-05-08T10:39:19;18.80;99.90
14016;DHT22;7083;48.854;9.158;2023-05-08T10:41:47;18.90;99.90
14016;DHT22;7083;48.854;9.158;2023-05-08T10:44:14;19.00;99.90
14016;DHT22;7083;48.854;9.158;2023-05-08T10:46:48;19.10;99.90
14016;DHT22;7083;48.854;9.158;2023-05-08T10:49:19;19.20;99.90
14016;DHT22;7083;48.854;9.158;2023-05-08T10:51:55;19.20;99.90
14016;DHT22;7083;48.854;9.158;2023-05-08T10:54:41;19.30;99.90
14016;DHT22;7083;48.854;9.158;2023-05-08T10:57:11;19.20;99.90
14016;DHT22;7083;48.854;9.158;2023-05-08T10:59:44;19.30;99.90
14016;DHT22;7083;48.854;9.158;2023-05-08T11:02:11;19.30;99.90
14016;DHT22;7083;48.854;9.158;2023-05-08T11:04:38;19.20;99.90
14016;DHT22;7083;48.854;9.158;2023-05-08T11:07:05;18.90;99.90
14016;DHT22;7083;48.854;9.158;2023-05-08T11:09:46;18.80;99.90
14016;DHT22;7083;48.854;9.158;2023-05-08T11:12:22;18.70;99.90
14016;DHT22;7083;48.854;9.158;2023-05-08T11:14:56;18.70;99.90
14016;DHT22;7083;48.854;9.158;2023-05-08T11:17:24;18.80;99.90
14016;DHT22;7083;48.854;9.158;2023-05-08T11:19:55;18.90;99.90
14016;DHT22;7083;48.854;9.158;2023-05-08T11:22:27;19.20;99.90
14016;DHT22;7083;48.854;9.158;2023-05-08T11:25:03;19.70;99.90
14016;DHT22;7083;48.854;9.158;2023-05-08T11:30:44;20.40;99.90
14016;DHT22;7083;48.854;9.158;2023-05-08T11:33:15;20.80;99.90
14016;DHT22;7083;48.854;9.158;2023-05-08T11:35:57;21.00;99.90
14016;DHT22;7083;48.854;9.158;2023-05-08T11:38:32;21.10;99.90
14016;DHT22;7083;48.854;9.158;2023-05-08T11:41:03;21.10;99.90
14016;DHT22;7083;48.854;9.158;2023-05-08T11:43:50;21.10;99.90
14016;DHT22;7083;48.854;9.158;2023-05-08T11:46:20;21.30;99.90
14016;DHT22;7083;48.854;9.158;2023-05-08T11:48:47;21.50;99.90
14016;DHT22;7083;48.854;9.158;2023-05-08T11:51:16;21.60;99.90
14016;DHT22;7083;48.854;9.158;2023-05-08T11:53:44;21.80;99.90
14016;DHT22;7083;48.854;9.158;2023-05-08T11:56:13;21.80;99.90
14016;DHT22;7083;48.854;9.158;2023-05-08T11:58:40;21.70;99.90
14016;DHT22;7083;48.854;9.158;2023-05-08T12:01:06;21.80;99.90
14016;DHT22;7083;48.854;9.158;2023-05-08T12:03:33;21.80;99.90
14016;DHT22;7083;48.854;9.158;2023-05-08T12:06:00;21.50;99.90
14016;DHT22;7083;48.854;9.158;2023-05-08T12:08:26;21.40;99.90
14016;DHT22;7083;48.854;9.158;2023-05-08T12:10:55;21.30;99.90
14016;DHT22;7083;48.854;9.158;2023-05-08T12:13:25;21.50;99.90
14016;DHT22;7083;48.854;9.158;2023-05-08T12:15:53;21.70;99.90
14016;DHT22;7083;48.854;9.158;2023-05-08T12:18:21;21.80;99.90
14016;DHT22;7083;48.854;9.158;2023-05-08T12:20:51;21.60;99.90
14016;DHT22;7083;48.854;9.158;2023-05-08T12:23:18;21.60;99.90
14016;DHT22;7083;48.854;9.158;2023-05-08T12:25:45;21.70;99.90
14016;DHT22;7083;48.854;9.158;2023-05-08T12:28:12;21.70;99.90
14016;DHT22;7083;48.854;9.158;2023-05-08T12:30:40;21.60;98.90
14016;DHT22;7083;48.854;9.158;2023-05-08T12:33:07;21.50;99.90
14016;DHT22;7083;48.854;9.158;2023-05-08T12:35:34;21.20;99.90
14016;DHT22;7083;48.854;9.158;2023-05-08T12:38:03;20.90;99.90
14016;DHT22;7083;48.854;9.158;2023-05-08T12:40:32;20.70;99.90
14016;DHT22;7083;48.854;9.158;2023-05-08T12:43:00;20.60;99.90
14016;DHT22;7083;48.854;9.158;2023-05-08T12:45:28;20.40;99.90
14016;DHT22;7083;48.854;9.158;2023-05-08T12:47:59;20.30;99.90
14016;DHT22;7083;48.854;9.158;2023-05-08T12:50:26;20.10;99.90
14016;DHT22;7083;48.854;9.158;2023-05-08T12:53:00;20.00;99.90
14016;DHT22;7083;48.854;9.158;2023-05-08T12:55:29;19.80;99.90
14016;DHT22;7083;48.854;9.158;2023-05-08T12:58:01;19.60;99.90
14016;DHT22;7083;48.854;9.158;2023-05-08T13:00:37;19.50;99.90
14016;DHT22;7083;48.854;9.158;2023-05-08T13:03:06;19.40;99.90
14016;DHT22;7083;48.854;9.158;2023-05-08T13:05:34;19.30;99.90
14016;DHT22;7083;48.854;9.158;2023-05-08T13:08:02;19.30;99.90
14016;DHT22;7083;48.854;9.158;2023-05-08T13:10:43;19.20;99.90
14016;DHT22;7083;48.854;9.158;2023-05-08T13:13:10;19.10;99.90
14016;DHT22;7083;48.854;9.158;2023-05-08T13:15:37;19.10;99.90
14016;DHT22;7083;48.854;9.158;2023-05-08T13:18:05;18.90;99.90
14016;DHT22;7083;48.854;9.158;2023-05-08T13:20:32;18.80;99.90
14016;DHT22;7083;48.854;9.158;2023-05-08T13:22:59;18.70;99.90
14016;DHT22;7083;48.854;9.158;2023-05-08T13:25:26;18.50;99.90
14016;DHT22;7083;48.854;9.158;2023-05-08T13:27:52;18.30;99.90
14016;DHT22;7083;48.854;9.158;2023-05-08T13:30:19;18.30;99.90
14016;DHT22;7083;48.854;9.158;2023-05-08T13:32:47;18.30;99.90
14016;DHT22;7083;48.854;9.158;2023-05-08T13:35:15;18.30;99.90
14016;DHT22;7083;48.854;9.158;2023-05-08T13:37:42;18.50;99.90
14016;DHT22;7083;48.854;9.158;2023-05-08T13:40:09;18.50;99.90
14016;DHT22;7083;48.854;9.158;2023-05-08T13:42:36;18.50;99.90
14016;DHT22;7083;48.854;9.158;2023-05-08T13:45:03;18.60;99.90
14016;DHT22;7083;48.854;9.158;2023-05-08T13:47:30;18.50;99.90
14016;DHT22;7083;48.854;9.158;2023-05-08T13:49:57;18.40;99.90
14016;DHT22;7083;48.854;9.158;2023-05-08T13:52:25;18.30;99.90
14016;DHT22;7083;48.854;9.158;2023-05-08T13:54:53;18.30;99.90
14016;DHT22;7083;48.854;9.158;2023-05-08T13:57:20;18.20;99.90
14016;DHT22;7083;48.854;9.158;2023-05-08T13:59:47;18.10;99.90
14016;DHT22;7083;48.854;9.158;2023-05-08T14:02:14;18.00;99.90
14016;DHT22;7083;48.854;9.158;2023-05-08T14:04:40;17.90;99.90
14016;DHT22;7083;48.854;9.158;2023-05-08T14:07:07;17.80;99.90
14016;DHT22;7083;48.854;9.158;2023-05-08T14:09:35;17.80;99.90
14016;DHT22;7083;48.854;9.158;2023-05-08T14:12:02;17.80;99.90
14016;DHT22;7083;48.854;9.158;2023-05-08T14:14:29;17.70;99.90
14016;DHT22;7083;48.854;9.158;2023-05-08T14:16:56;17.70;99.90
14016;DHT22;7083;48.854;9.158;2023-05-08T14:19:22;17.60;99.90
14016;DHT22;7083;48.854;9.158;2023-05-08T14:21:49;17.60;99.90
14016;DHT22;7083;48.854;9.158;2023-05-08T14:24:16;17.60;99.90
14016;DHT22;7083;48.854;9.158;2023-05-08T14:26:44;17.60;99.90
14016;DHT22;7083;48.854;9.158;2023-05-08T14:29:11;17.60;99.90
14016;DHT22;7083;48.854;9.158;2023-05-08T14:31:37;17.60;99.90
14016;DHT22;7083;48.854;9.158;2023-05-08T14:34:04;17.70;99.90
14016;DHT22;7083;48.854;9.158;2023-05-08T14:36:31;17.80;99.90
14016;DHT22;7083;48.854;9.158;2023-05-08T14:38:57;17.80;99.90
14016;DHT22;7083;48.854;9.158;2023-05-08T14:41:26;17.90;99.90
14016;DHT22;7083;48.854;9.158;2023-05-08T14:43:55;18.00;99.90
14016;DHT22;7083;48.854;9.158;2023-05-08T14:46:21;18.00;99.90
14016;DHT22;7083;48.854;9.158;2023-05-08T14:48:49;18.10;99.90
14016;DHT22;7083;48.854;9.158;2023-05-08T14:51:15;18.10;99.90
14016;DHT22;7083;48.854;9.158;2023-05-08T14:53:43;18.10;99.90
14016;DHT22;7083;48.854;9.158;2023-05-08T14:56:10;18.10;99.90
14016;DHT22;7083;48.854;9.158;2023-05-08T14:58:38;18.20;99.90
14016;DHT22;7083;48.854;9.158;2023-05-08T15:01:06;18.20;99.90
14016;DHT22;7083;48.854;9.158;2023-05-08T15:03:32;18.20;99.90
14016;DHT22;7083;48.854;9.158;2023-05-08T15:05:59;18.10;99.90
14016;DHT22;7083;48.854;9.158;2023-05-08T15:08:26;18.20;99.90
14016;DHT22;7083;48.854;9.158;2023-05-08T15:10:52;18.30;99.90
14016;DHT22;7083;48.854;9.158;2023-05-08T15:13:19;18.40;99.90
14016;DHT22;7083;48.854;9.158;2023-05-08T15:15:46;18.40;99.90
14016;DHT22;7083;48.854;9.158;2023-05-08T15:18:14;18.40;99.90
14016;DHT22;7083;48.854;9.158;2023-05-08T15:20:40;18.30;99.90
14016;DHT22;7083;48.854;9.158;2023-05-08T15:23:07;18.30;99.90
14016;DHT22;7083;48.854;9.158;2023-05-08T15:25:33;18.20;99.90
14016;DHT22;7083;48.854;9.158;2023-05-08T15:28:00;18.10;99.90
14016;DHT22;7083;48.854;9.158;2023-05-08T15:30:27;18.10;99.90
14016;DHT22;7083;48.854;9.158;2023-05-08T15:32:53;18.00;99.90
14016;DHT22;7083;48.854;9.158;2023-05-08T15:35:21;18.00;99.90
14016;DHT22;7083;48.854;9.158;2023-05-08T15:37:48;18.00;99.90
14016;DHT22;7083;48.854;9.158;2023-05-08T15:40:15;18.00;99.90
14016;DHT22;7083;48.854;9.158;2023-05-08T15:42:41;18.00;99.90
14016;DHT22;7083;48.854;9.158;2023-05-08T15:45:09;18.00;99.90
14016;DHT22;7083;48.854;9.158;2023-05-08T15:47:35;18.00;99.90
14016;DHT22;7083;48.854;9.158;2023-05-08T15:50:02;18.00;99.90
14016;DHT22;7083;48.854;9.158;2023-05-08T15:52:30;18.00;99.90
14016;DHT22;7083;48.854;9.158;2023-05-08T15:54:57;17.90;99.90
14016;DHT22;7083;48.854;9.158;2023-05-08T15:57:23;17.90;99.90